createdAt,value
2022-10-28T00:01:20.927Z,46.65
2022-10-28T00:03:52.152Z,50.65
2022-10-28T00:06:22.829Z,48.33
2022-10-28T00:08:50.417Z,44.03
2022-10-28T00:11:20.565Z,53.22
2022-10-28T00:13:48.229Z,50.78
2022-10-28T00:16:21.113Z,50.65
2022-10-28T00:18:48.625Z,52.42
2022-10-28T00:21:18.476Z,59.03
2022-10-28T00:23:46.038Z,60.15
2022-10-28T00:26:15.611Z,59.13
2022-10-28T00:28:44.744Z,63.22
2022-10-28T00:31:13.382Z,55.92
2022-10-28T00:33:40.623Z,49.78
2022-10-28T00:36:16.860Z,48.70
2022-10-28T00:38:45.239Z,48.03
2022-10-28T00:41:14.564Z,46.50
2022-10-28T00:43:45.905Z,46.60
2022-10-28T00:46:29.619Z,46.92
2022-10-28T00:49:06.146Z,44.47
2022-10-28T00:51:35.580Z,43.45
2022-10-28T00:54:04.572Z,42.05
2022-10-28T00:56:34.658Z,42.22
2022-10-28T00:59:04.413Z,41.63
2022-10-28T01:01:31.735Z,40.80
2022-10-28T01:03:59.552Z,40.40
2022-10-28T01:06:28.786Z,38.65
2022-10-28T01:08:59.094Z,38.80
2022-10-28T01:12:06.239Z,38.50
2022-10-28T01:14:42.576Z,38.75
2022-10-28T01:17:27.804Z,38.95
2022-10-28T01:20:36.179Z,38.90
2022-10-28T01:23:12.769Z,39.05
2022-10-28T01:25:51.852Z,36.75
2022-10-28T01:28:25.209Z,39.60
2022-10-28T01:31:10.011Z,37.38
2022-10-28T01:33:44.513Z,36.60
2022-10-28T01:36:16.250Z,34.15
2022-10-28T01:38:54.818Z,34.45
2022-10-28T01:41:31.800Z,34.13
2022-10-28T01:44:34.168Z,36.03
2022-10-28T01:47:22.623Z,39.80
2022-10-28T01:50:01.033Z,39.97
2022-10-28T01:52:31.268Z,40.30
2022-10-28T01:55:08.636Z,43.13
2022-10-28T01:57:38.664Z,44.78
2022-10-28T02:00:06.660Z,41.20
2022-10-28T02:02:39.790Z,36.35
2022-10-28T02:05:46.049Z,33.22
2022-10-28T02:08:18.976Z,32.60
2022-10-28T02:11:01.489Z,40.63
2022-10-28T02:13:54.443Z,35.33
2022-10-28T02:16:30.766Z,32.63
2022-10-28T02:19:32.879Z,36.60
2022-10-28T02:22:13.081Z,37.05
2022-10-28T02:25:15.234Z,40.38
2022-10-28T02:27:45.406Z,35.22
2022-10-28T02:30:21.336Z,35.08
2022-10-28T02:32:57.893Z,34.85
2022-10-28T02:35:38.843Z,33.60
2022-10-28T02:38:11.066Z,34.10
2022-10-28T02:40:39.814Z,33.67
2022-10-28T02:43:09.143Z,35.20
2022-10-28T02:45:43.030Z,35.47
2022-10-28T02:48:19.052Z,34.40
2022-10-28T02:50:53.226Z,35.90
2022-10-28T02:56:01.604Z,37.92
2022-10-28T02:58:29.139Z,35.17
2022-10-28T03:00:56.276Z,37.25
2022-10-28T03:03:23.382Z,36.90
2022-10-28T03:05:50.508Z,35.63
2022-10-28T03:08:17.611Z,35.80
2022-10-28T03:10:44.768Z,36.60
2022-10-28T03:13:11.694Z,35.85
2022-10-28T03:15:38.759Z,36.10
2022-10-28T03:18:05.831Z,35.90
2022-10-28T03:20:32.875Z,37.83
2022-10-28T03:22:59.975Z,35.90
2022-10-28T03:25:26.895Z,38.47
2022-10-28T03:27:53.958Z,37.97
2022-10-28T03:30:20.959Z,36.87
2022-10-28T03:32:48.031Z,38.27
2022-10-28T03:35:14.999Z,40.87
2022-10-28T03:37:44.988Z,50.43
2022-10-28T03:40:12.808Z,42.43
2022-10-28T03:42:42.906Z,41.58
2022-10-28T03:45:11.214Z,42.03
2022-10-28T03:47:39.889Z,41.50
2022-10-28T03:50:07.520Z,44.67
2022-10-28T03:52:34.880Z,42.60
2022-10-28T03:55:01.988Z,41.67
2022-10-28T03:57:33.060Z,40.03
2022-10-28T04:00:00.073Z,41.10
2022-10-28T04:02:27.378Z,41.63
2022-10-28T04:04:54.412Z,41.90
2022-10-28T04:07:21.492Z,38.87
2022-10-28T04:09:51.446Z,42.13
2022-10-28T04:12:19.126Z,40.57
2022-10-28T04:14:46.131Z,40.97
2022-10-28T04:17:13.968Z,38.80
2022-10-28T04:19:41.002Z,39.22
2022-10-28T04:22:09.168Z,38.45
2022-10-28T04:24:36.268Z,36.70
2022-10-28T04:27:03.263Z,35.13
2022-10-28T04:29:30.281Z,36.95
2022-10-28T04:31:57.311Z,36.15
2022-10-28T04:34:24.277Z,35.92
2022-10-28T04:36:51.622Z,35.77
2022-10-28T04:39:18.831Z,36.50
2022-10-28T04:41:45.910Z,35.97
2022-10-28T04:44:12.841Z,35.17
2022-10-28T04:46:40.754Z,35.27
2022-10-28T04:49:07.784Z,34.97
2022-10-28T04:51:34.815Z,34.27
2022-10-28T04:54:01.806Z,34.67
2022-10-28T04:56:31.081Z,36.10
2022-10-28T04:58:58.112Z,36.20
2022-10-28T05:01:25.126Z,38.47
2022-10-28T05:03:52.116Z,36.10
2022-10-28T05:06:19.053Z,37.63
2022-10-28T05:08:46.016Z,39.20
2022-10-28T05:11:12.996Z,37.47
2022-10-28T05:13:39.999Z,35.83
2022-10-28T05:16:07.718Z,35.30
2022-10-28T05:18:34.742Z,36.63
2022-10-28T05:21:01.762Z,34.80
2022-10-28T05:23:30.934Z,34.23
2022-10-28T05:25:58.515Z,35.33
2022-10-28T05:28:25.444Z,35.57
2022-10-28T05:30:52.347Z,35.03
2022-10-28T05:33:19.522Z,34.13
2022-10-28T05:35:46.807Z,32.07
2022-10-28T05:38:13.838Z,34.40
2022-10-28T05:40:40.890Z,36.85
2022-10-28T05:43:09.477Z,36.20
2022-10-28T05:45:37.183Z,32.88
2022-10-28T05:48:04.342Z,32.60
2022-10-28T05:50:31.567Z,32.92
2022-10-28T05:52:58.849Z,32.42
2022-10-28T05:55:28.477Z,33.55
2022-10-28T05:57:56.803Z,31.52
2022-10-28T06:00:26.604Z,30.20
2022-10-28T06:03:01.332Z,33.13
2022-10-28T06:05:28.472Z,31.98
2022-10-28T06:07:55.399Z,31.58
2022-10-28T06:10:22.494Z,31.88
2022-10-28T06:12:48.209Z,31.15
2022-10-28T06:15:15.218Z,29.92
2022-10-28T06:17:45.767Z,28.98
2022-10-28T06:20:12.917Z,29.05
2022-10-28T06:22:50.695Z,28.35
2022-10-28T06:25:19.789Z,27.15
2022-10-28T06:27:55.577Z,26.00
2022-10-28T06:30:23.804Z,26.75
2022-10-28T06:32:51.178Z,26.92
2022-10-28T06:35:18.471Z,27.13
2022-10-28T06:37:45.520Z,26.67
2022-10-28T06:40:13.660Z,27.02
2022-10-28T06:42:41.498Z,28.42
2022-10-28T06:45:16.996Z,25.85
2022-10-28T06:47:47.225Z,26.23
2022-10-28T06:50:14.670Z,24.70
2022-10-28T06:52:41.560Z,24.60
2022-10-28T06:55:08.812Z,26.48
2022-10-28T06:57:35.856Z,25.55
2022-10-28T07:00:03.029Z,25.30
2022-10-28T07:02:30.047Z,24.92
2022-10-28T07:04:57.179Z,25.67
2022-10-28T07:07:24.325Z,25.92
2022-10-28T07:09:51.295Z,24.55
2022-10-28T07:14:50.865Z,23.52
2022-10-28T07:17:18.051Z,23.33
2022-10-28T07:19:45.067Z,24.05
2022-10-28T07:22:12.393Z,23.20
2022-10-28T07:24:39.425Z,23.10
2022-10-28T07:27:06.372Z,22.50
2022-10-28T07:29:33.440Z,23.23
2022-10-28T07:32:00.954Z,22.00
2022-10-28T07:34:28.043Z,21.42
2022-10-28T07:36:55.846Z,20.83
2022-10-28T07:39:23.320Z,20.70
2022-10-28T07:41:50.344Z,20.15
2022-10-28T07:44:17.598Z,19.85
2022-10-28T07:46:44.533Z,20.05
2022-10-28T07:49:11.698Z,20.98
2022-10-28T07:51:38.660Z,19.45
2022-10-28T07:54:05.846Z,20.23
2022-10-28T07:56:32.837Z,20.25
2022-10-28T07:59:01.915Z,19.98
2022-10-28T08:01:30.417Z,19.17
2022-10-28T08:03:58.462Z,18.95
2022-10-28T08:06:25.567Z,17.77
2022-10-28T08:08:57.257Z,18.25
2022-10-28T08:11:24.570Z,18.95
2022-10-28T08:13:52.423Z,18.25
2022-10-28T08:16:19.804Z,17.52
2022-10-28T08:18:47.368Z,16.70
2022-10-28T08:21:15.555Z,15.95
2022-10-28T08:23:46.687Z,18.15
2022-10-28T08:26:15.801Z,17.98
2022-10-28T08:28:43.543Z,17.40
2022-10-28T08:31:12.491Z,18.17
2022-10-28T08:33:45.532Z,17.48
2022-10-28T08:36:14.332Z,18.25
2022-10-28T08:38:45.852Z,17.23
2022-10-28T08:41:47.420Z,17.27
2022-10-28T08:44:23.994Z,16.70
2022-10-28T08:47:15.945Z,16.33
2022-10-28T08:49:49.224Z,15.35
2022-10-28T08:52:25.901Z,16.05
2022-10-28T08:55:18.523Z,15.00
2022-10-28T08:57:58.376Z,13.43
2022-10-28T09:00:31.304Z,12.07
2022-10-28T09:03:03.537Z,13.52
2022-10-28T09:05:31.002Z,13.27
2022-10-28T09:07:58.946Z,13.45
2022-10-28T09:10:44.364Z,13.95
2022-10-28T09:13:14.194Z,13.25
2022-10-28T09:16:15.973Z,13.45
2022-10-28T09:18:55.920Z,11.90
2022-10-28T09:21:48.940Z,11.50
2022-10-28T09:24:21.002Z,11.27
2022-10-28T09:27:06.425Z,10.90
2022-10-28T09:29:51.732Z,11.45
2022-10-28T09:32:41.833Z,11.90
2022-10-28T09:35:24.960Z,11.57
2022-10-28T09:37:59.510Z,11.13
2022-10-28T09:40:30.821Z,12.45
2022-10-28T09:43:27.179Z,12.05
2022-10-28T09:46:00.981Z,12.95
2022-10-28T09:48:33.095Z,12.85
2022-10-28T09:51:01.033Z,13.63
2022-10-28T09:53:49.863Z,13.82
2022-10-28T09:56:16.997Z,13.02
2022-10-28T09:58:47.873Z,13.52
2022-10-28T10:01:17.969Z,13.15
2022-10-28T10:03:49.421Z,13.30
2022-10-28T10:06:26.125Z,14.00
2022-10-28T10:08:59.255Z,13.80
2022-10-28T10:11:44.320Z,13.48
2022-10-28T10:14:15.956Z,14.10
2022-10-28T10:16:48.057Z,13.70
2022-10-28T10:19:15.131Z,14.10
2022-10-28T10:21:51.102Z,13.63
2022-10-28T10:24:25.373Z,13.48
2022-10-28T10:26:53.534Z,13.55
2022-10-28T10:29:22.162Z,13.43
2022-10-28T10:32:05.946Z,12.52
2022-10-28T10:34:33.557Z,12.70
2022-10-28T10:37:00.701Z,12.98
2022-10-28T10:39:37.011Z,13.15
2022-10-28T10:42:16.480Z,13.45
2022-10-28T10:44:43.960Z,12.77
2022-10-28T10:47:11.896Z,12.85
2022-10-28T10:49:39.099Z,14.25
2022-10-28T10:52:28.572Z,13.93
2022-10-28T10:55:03.727Z,12.32
2022-10-28T10:57:31.905Z,13.55
2022-10-28T10:59:59.349Z,14.13
2022-10-28T11:02:35.152Z,13.80
2022-10-28T11:05:10.694Z,13.35
2022-10-28T11:07:40.565Z,13.02
2022-10-28T11:10:30.234Z,13.75
2022-10-28T11:13:02.101Z,13.65
2022-10-28T11:15:31.277Z,12.95
2022-10-28T11:18:21.039Z,13.30
2022-10-28T11:21:07.882Z,13.05
2022-10-28T11:23:37.913Z,12.15
2022-10-28T11:26:09.667Z,12.18
2022-10-28T11:29:10.015Z,12.80
2022-10-28T11:32:05.442Z,11.68
2022-10-28T11:34:55.611Z,10.85
2022-10-28T11:37:41.271Z,10.90
2022-10-28T11:40:30.942Z,10.80
2022-10-28T11:43:09.895Z,10.73
2022-10-28T11:46:04.876Z,9.65
2022-10-28T11:48:50.630Z,10.15
2022-10-28T11:51:31.091Z,9.35
2022-10-28T11:54:25.479Z,9.50
2022-10-28T11:57:06.077Z,8.43
2022-10-28T12:00:00.698Z,8.55
2022-10-28T12:02:53.693Z,8.38
2022-10-28T12:05:28.419Z,8.35
2022-10-28T12:08:10.689Z,8.27
2022-10-28T12:11:04.950Z,8.30
2022-10-28T12:13:41.405Z,8.27
2022-10-28T12:16:29.008Z,9.15
2022-10-28T12:19:14.867Z,8.52
2022-10-28T12:22:00.035Z,8.57
2022-10-28T12:24:28.722Z,8.27
2022-10-28T12:26:59.707Z,8.48
2022-10-28T12:29:41.530Z,8.68
2022-10-28T12:32:14.191Z,7.85
2022-10-28T12:34:51.054Z,8.13
2022-10-28T12:37:48.712Z,8.90
2022-10-28T12:40:23.210Z,8.50
2022-10-28T12:43:12.090Z,8.23
2022-10-28T12:45:42.412Z,9.25
2022-10-28T12:48:38.999Z,8.88
2022-10-28T12:51:29.203Z,9.80
2022-10-28T12:54:17.635Z,10.02
2022-10-28T12:56:50.948Z,10.00
2022-10-28T12:59:38.039Z,9.55
2022-10-28T13:02:13.196Z,9.85
2022-10-28T13:04:41.179Z,9.25
2022-10-28T13:07:36.052Z,9.15
2022-10-28T13:10:25.694Z,9.55
2022-10-28T13:13:26.370Z,9.05
2022-10-28T13:16:19.014Z,10.00
2022-10-28T13:19:18.175Z,9.88
2022-10-28T13:22:06.021Z,9.77
2022-10-28T13:24:49.484Z,10.32
2022-10-28T13:27:17.079Z,10.25
2022-10-28T13:29:51.367Z,10.50
2022-10-28T13:32:40.433Z,9.75
2022-10-28T13:35:22.486Z,9.90
2022-10-28T13:37:51.825Z,9.70
2022-10-28T13:40:31.054Z,10.23
2022-10-28T13:42:59.618Z,10.75
2022-10-28T13:45:48.443Z,10.48
2022-10-28T13:48:43.117Z,10.63
2022-10-28T13:51:10.384Z,10.13
2022-10-28T13:53:54.111Z,10.80
2022-10-28T13:56:44.829Z,10.52
2022-10-28T13:59:14.623Z,10.10
2022-10-28T14:01:41.734Z,10.82
2022-10-28T14:04:28.112Z,10.80
2022-10-28T14:07:14.065Z,10.18
2022-10-28T14:09:41.817Z,10.38
2022-10-28T14:12:26.146Z,10.43
2022-10-28T14:14:56.030Z,10.60
2022-10-28T14:17:27.305Z,11.05
2022-10-28T14:19:55.212Z,12.10
2022-10-28T14:22:33.143Z,11.60
2022-10-28T14:25:01.075Z,11.05
2022-10-28T14:27:39.477Z,11.50
2022-10-28T14:30:16.184Z,11.50
2022-10-28T14:33:18.585Z,10.20
2022-10-28T14:35:48.295Z,10.65
2022-10-28T14:38:49.804Z,10.40
2022-10-28T14:41:35.300Z,10.07
2022-10-28T14:44:31.023Z,9.50
2022-10-28T14:47:22.700Z,8.65
2022-10-28T14:50:02.250Z,9.40
2022-10-28T14:52:33.684Z,9.25
2022-10-28T14:55:05.439Z,9.13
2022-10-28T14:57:36.068Z,9.57
2022-10-28T15:00:07.344Z,9.15
2022-10-28T15:02:37.281Z,9.43
2022-10-28T15:05:22.048Z,9.13
2022-10-28T15:07:49.227Z,10.07
2022-10-28T15:10:26.147Z,9.85
2022-10-28T15:12:55.227Z,10.43
2022-10-28T15:15:27.744Z,10.75
2022-10-28T15:17:55.310Z,11.18
2022-10-28T15:20:28.094Z,10.30
2022-10-28T15:23:20.849Z,10.68
2022-10-28T15:26:09.845Z,10.35
2022-10-28T15:28:38.015Z,10.95
2022-10-28T15:31:05.122Z,11.48
2022-10-28T15:33:38.021Z,11.25
2022-10-28T15:36:17.838Z,11.23
2022-10-28T15:39:08.050Z,11.35
2022-10-28T15:41:41.529Z,11.40
2022-10-28T15:44:26.039Z,11.43
2022-10-28T15:46:53.574Z,12.45
2022-10-28T15:49:41.084Z,11.82
2022-10-28T15:52:39.222Z,12.60
2022-10-28T15:55:35.993Z,14.30
2022-10-28T15:58:19.242Z,14.45
2022-10-28T16:00:54.954Z,13.55
2022-10-28T16:06:00.375Z,14.00
2022-10-28T16:08:30.160Z,14.45
2022-10-28T16:11:03.353Z,13.20
2022-10-28T16:13:37.384Z,13.68
2022-10-28T16:16:04.407Z,13.45
2022-10-28T16:18:35.078Z,13.50
2022-10-28T16:21:04.554Z,13.57
2022-10-28T16:23:38.977Z,13.73
2022-10-28T16:26:06.652Z,13.55
2022-10-28T16:28:34.015Z,14.05
2022-10-28T16:31:02.603Z,14.07
2022-10-28T16:33:35.309Z,14.48
2022-10-28T16:36:03.251Z,14.93
2022-10-28T16:38:31.417Z,15.82
2022-10-28T16:41:00.326Z,15.85
2022-10-28T16:43:29.604Z,15.07
2022-10-28T16:46:00.990Z,15.40
2022-10-28T16:48:30.725Z,15.55
2022-10-28T16:51:01.669Z,16.95
2022-10-28T16:53:29.104Z,16.83
2022-10-28T16:55:59.091Z,17.47
2022-10-28T16:58:28.008Z,18.70
2022-10-28T17:00:56.352Z,18.17
2022-10-28T17:03:23.435Z,18.70
2022-10-28T17:05:50.437Z,20.60
2022-10-28T17:08:30.777Z,21.70
2022-10-28T17:11:04.781Z,25.08
2022-10-28T17:13:31.770Z,26.05
2022-10-28T17:15:58.715Z,26.73
2022-10-28T17:18:25.963Z,27.90
2022-10-28T17:21:03.131Z,29.45
2022-10-28T17:23:30.395Z,29.88
2022-10-28T17:26:02.940Z,29.17
2022-10-28T17:28:30.074Z,31.38
2022-10-28T17:31:05.530Z,33.50
2022-10-28T17:33:33.122Z,31.23
2022-10-28T17:36:08.716Z,31.30
2022-10-28T17:38:36.854Z,33.20
2022-10-28T17:41:04.092Z,35.70
2022-10-28T17:43:31.351Z,35.72
2022-10-28T17:46:06.111Z,36.97
2022-10-28T17:48:34.060Z,38.22
2022-10-28T17:51:01.190Z,40.65
2022-10-28T17:53:28.334Z,40.97
2022-10-28T17:55:59.697Z,40.65
2022-10-28T17:58:27.323Z,41.05
2022-10-28T18:01:03.182Z,40.78
2022-10-28T18:03:33.993Z,40.22
2022-10-28T18:06:10.859Z,41.42
2022-10-28T18:08:40.135Z,41.80
2022-10-28T18:11:09.271Z,39.15
2022-10-28T18:13:38.482Z,40.00
2022-10-28T18:16:14.153Z,41.03
2022-10-28T18:18:42.738Z,39.42
2022-10-28T18:21:13.500Z,40.78
2022-10-28T18:23:41.334Z,39.80
2022-10-28T18:26:12.268Z,41.17
2022-10-28T18:28:40.277Z,41.65
2022-10-28T18:31:16.433Z,42.53
2022-10-28T18:33:44.442Z,43.78
2022-10-28T18:36:15.159Z,44.25
2022-10-28T18:38:42.455Z,43.03
2022-10-28T18:41:14.779Z,42.03
2022-10-28T18:43:42.270Z,43.00
2022-10-28T18:46:09.690Z,42.38
2022-10-28T18:48:36.776Z,41.40
2022-10-28T18:51:06.864Z,41.03
2022-10-28T18:53:39.402Z,41.28
2022-10-28T18:56:08.721Z,41.92
2022-10-28T18:58:35.799Z,38.58
2022-10-28T19:01:07.984Z,37.55
2022-10-28T19:03:35.269Z,38.60
2022-10-28T19:06:11.118Z,38.50
2022-10-28T19:08:39.032Z,38.80
2022-10-28T19:11:07.308Z,40.47
2022-10-28T19:13:39.616Z,40.33
2022-10-28T19:16:07.516Z,43.60
2022-10-28T19:18:38.452Z,43.72
2022-10-28T19:21:13.683Z,45.13
2022-10-28T19:23:41.884Z,45.42
2022-10-28T19:26:10.417Z,45.25
2022-10-28T19:28:41.545Z,45.38
2022-10-28T19:31:14.366Z,49.00
2022-10-28T19:33:43.271Z,47.47
2022-10-28T19:36:18.588Z,48.30
2022-10-28T19:38:46.948Z,48.15
2022-10-28T19:41:16.633Z,49.20
2022-10-28T19:43:44.172Z,52.22
2022-10-28T19:46:17.239Z,52.72
2022-10-28T19:48:47.267Z,55.63
2022-10-28T19:51:17.360Z,54.90
2022-10-28T19:53:49.284Z,55.40
2022-10-28T19:56:19.285Z,57.22
2022-10-28T19:58:57.650Z,58.33
2022-10-28T20:01:27.920Z,59.47
2022-10-28T20:03:55.757Z,59.53
2022-10-28T20:06:29.832Z,62.25
2022-10-28T20:08:56.784Z,61.75
2022-10-28T20:11:26.943Z,60.70
2022-10-28T20:14:03.316Z,60.08
2022-10-28T20:16:31.343Z,60.50
2022-10-28T20:18:58.977Z,62.08
2022-10-28T20:21:28.510Z,59.90
2022-10-28T20:23:57.005Z,59.00
2022-10-28T20:26:29.858Z,58.60
2022-10-28T20:28:58.346Z,57.70
2022-10-28T20:31:27.541Z,58.00
2022-10-28T20:34:00.640Z,56.13
2022-10-28T20:36:35.158Z,57.72
2022-10-28T20:39:09.651Z,55.38
2022-10-28T20:41:38.573Z,54.50
2022-10-28T20:44:06.564Z,57.70
2022-10-28T20:46:33.768Z,53.75
2022-10-28T20:49:01.001Z,52.15
2022-10-28T20:51:31.845Z,50.05
2022-10-28T20:53:59.419Z,49.38
2022-10-28T20:56:31.473Z,50.85
2022-10-28T20:58:59.366Z,50.08
2022-10-28T21:01:29.529Z,49.30
2022-10-28T21:04:01.387Z,47.78
2022-10-28T21:06:29.607Z,49.28
2022-10-28T21:08:57.667Z,47.58
2022-10-28T21:11:25.611Z,47.70
2022-10-28T21:13:55.427Z,51.10
2022-10-28T21:16:25.386Z,51.33
2022-10-28T21:18:53.404Z,55.38
2022-10-28T21:21:21.679Z,56.08
2022-10-28T21:23:48.858Z,56.72
2022-10-28T21:26:15.816Z,56.97
2022-10-28T21:28:42.898Z,58.05
2022-10-28T21:31:15.157Z,58.42
2022-10-28T21:33:43.307Z,58.33
2022-10-28T21:36:14.247Z,59.00
2022-10-28T21:38:41.826Z,60.25
2022-10-28T21:41:15.798Z,58.17
2022-10-28T21:43:45.517Z,57.38
2022-10-28T21:46:12.744Z,57.25
2022-10-28T21:48:40.181Z,54.90
2022-10-28T21:51:13.435Z,56.35
2022-10-28T21:53:43.286Z,55.40
2022-10-28T21:56:18.276Z,54.53
2022-10-28T21:58:47.775Z,58.78
2022-10-28T22:01:16.223Z,59.95
2022-10-28T22:03:43.611Z,63.88
2022-10-28T22:06:11.292Z,64.65
2022-10-28T22:08:38.563Z,66.82
2022-10-28T22:11:09.812Z,68.18
2022-10-28T22:13:36.954Z,68.93
2022-10-28T22:16:07.162Z,66.18
2022-10-28T22:18:36.216Z,67.78
2022-10-28T22:21:11.887Z,68.55
2022-10-28T22:23:39.476Z,70.45
2022-10-28T22:26:08.889Z,70.70
2022-10-28T22:28:35.928Z,69.15
2022-10-28T22:31:06.207Z,66.80
2022-10-28T22:33:33.509Z,67.28
2022-10-28T22:36:03.729Z,58.35
2022-10-28T22:38:30.887Z,57.72
2022-10-28T22:41:06.164Z,58.53
2022-10-28T22:43:33.909Z,58.03
2022-10-28T22:46:01.829Z,59.92
2022-10-28T22:48:28.842Z,58.45
2022-10-28T22:50:56.708Z,58.75
2022-10-28T22:53:24.005Z,57.22
2022-10-28T22:55:53.671Z,57.75
2022-10-28T22:58:21.677Z,63.05
2022-10-28T23:00:50.017Z,60.75
2022-10-28T23:03:17.516Z,58.85
2022-10-28T23:05:44.462Z,60.70
2022-10-28T23:08:16.285Z,60.30
2022-10-28T23:10:43.550Z,57.05
2022-10-28T23:13:12.361Z,59.47
2022-10-28T23:15:39.497Z,62.20
2022-10-28T23:18:06.520Z,59.85
2022-10-28T23:20:35.824Z,58.17
2022-10-28T23:23:02.868Z,60.03
2022-10-28T23:25:30.020Z,61.33
2022-10-28T23:27:57.770Z,62.30
2022-10-28T23:30:25.165Z,64.00
2022-10-28T23:32:52.362Z,71.05
2022-10-28T23:35:19.275Z,72.50
2022-10-28T23:37:46.296Z,73.43
2022-10-28T23:40:13.428Z,77.10
2022-10-28T23:42:40.478Z,78.75
2022-10-28T23:45:09.533Z,112.43
2022-10-28T23:47:36.827Z,96.72
2022-10-28T23:50:04.259Z,87.65
2022-10-28T23:52:31.325Z,88.13
2022-10-28T23:54:58.382Z,88.28
2022-10-28T23:57:25.346Z,87.35
2022-10-28T23:59:53.664Z,83.45
